Automated Weather Station

Lita, Tayabas, Quezon


Readings

as of August 06, 2016 01:00 AM
Wind Speed
1.4 mm
Rainfall Amount
0 mm
Rainfall Intensity
0 mm
Air Temperature
mm
Wind Direction
293 mm
Air Humidity
88.4 mm

Data Source: PREDICT (Advanced Science and Technology Institute)

12 HOUR DATA

PREVIOUS DATA

From
To
DateTime Wind Speed Rain Amount Rain Intensity Air Temperature Air Pressure Wind Direction Air Humidity
October 31, 2013 07:45 PM 3.2 0 mm 0 24.9 990.95 189 81.2
October 31, 2013 07:30 PM 2.8 0 mm 0 25.1 990.69 196 79.2
October 31, 2013 07:15 PM 3.2 0 mm 0 25.3 990.42 194 77.3
October 31, 2013 07:00 PM 2.2 0 mm 0 25.4 990.29 206 77.1
October 31, 2013 06:45 PM 2 0 mm 0 25.6 990.02 200 76.2
October 31, 2013 06:30 PM 3.4 0 mm 0 26 989.89 222 73.9
October 31, 2013 06:15 PM 4.1 0 mm 0 26 989.62 223 75.1
October 31, 2013 06:00 PM 3.7 0 mm 0 26 989.62 204 76
October 31, 2013 05:45 PM 3.4 0 mm 0 26.3 989.22 204 75
October 31, 2013 05:30 PM 4.3 0 mm 0 26.6 989.22 217 74.6
October 31, 2013 05:15 PM 3.6 0 mm 0 27 989.09 206 72.1
October 31, 2013 05:00 PM 3.9 0 mm 0 27.9 988.82 226 63.7
October 31, 2013 04:45 PM 5.2 0 mm 0 28.4 988.69 229 59.1
October 31, 2013 04:30 PM 5 0 mm 0 28.8 988.42 224 58.7
October 31, 2013 04:15 PM 5.3 0 mm 0 29.1 988.02 207 58.8
October 31, 2013 04:00 PM 5.1 0 mm 0 29.5 988.02 204 56.5
October 31, 2013 03:45 PM 4.3 0 mm 0 29.6 987.89 201 55.3
October 31, 2013 03:30 PM 4.8 0 mm 0 29.9 988.02 221 55
October 31, 2013 03:15 PM 0 0 mm 0 0 0 0 0
October 31, 2013 03:00 PM 4.5 0 mm 0 29.9 987.62 212 57.6
October 31, 2013 02:45 PM 4.2 0 mm 0 30.1 987.62 209 54.8
October 31, 2013 02:30 PM 3.9 0 mm 0 30.3 987.62 221 58.3
October 31, 2013 02:15 PM 4.4 0 mm 0 30.1 988.02 213 59
October 31, 2013 02:00 PM 4 0 mm 0 30.4 988.15 209 58.4
October 31, 2013 01:45 PM 2.7 0 mm 0 30.8 988.55 194 59.8
October 31, 2013 01:30 PM 2.2 0 mm 0 31.1 988.82 206 56.5
October 31, 2013 01:15 PM 2.7 0 mm 0 31.1 989.22 222 55.2
October 31, 2013 01:00 PM 2.3 0 mm 0 31.3 989.35 199 55.4
October 31, 2013 12:45 PM 2.6 0 mm 0 30.6 989.62 152 57.6
October 31, 2013 12:30 PM 3.2 0 mm 0 30.2 990.02 106 58.1